createdAt,value
2019-03-16T00:00:05.998Z,8.19
2019-03-16T00:05:13.211Z,8.17
2019-03-16T00:10:20.231Z,8.25
2019-03-16T00:15:25.475Z,8.27
2019-03-16T00:20:30.825Z,8.15
2019-03-16T00:25:36.030Z,8.11
2019-03-16T00:30:41.317Z,8.10
2019-03-16T00:35:47.236Z,8.08
2019-03-16T00:40:53.217Z,8.08
2019-03-16T00:45:58.928Z,8.09
2019-03-16T00:51:04.130Z,8.11
2019-03-16T00:56:09.418Z,8.14
2019-03-16T01:01:17.232Z,8.20
2019-03-16T01:06:23.070Z,8.16
2019-03-16T01:11:28.666Z,8.18
2019-03-16T01:16:33.928Z,8.24
2019-03-16T01:21:39.669Z,8.17
2019-03-16T01:26:44.877Z,8.14
2019-03-16T01:31:50.296Z,8.11
2019-03-16T01:36:55.933Z,8.09
2019-03-16T01:42:01.226Z,8.05
2019-03-16T01:47:06.495Z,7.95
2019-03-16T01:52:11.739Z,7.91
2019-03-16T01:57:17.391Z,7.82
2019-03-16T02:02:23.021Z,7.89
2019-03-16T02:07:28.312Z,7.85
2019-03-16T02:12:33.526Z,7.84
2019-03-16T02:17:38.795Z,7.81
2019-03-16T02:22:44.486Z,7.81
2019-03-16T02:27:49.696Z,7.72
2019-03-16T02:33:11.042Z,7.74
2019-03-16T02:38:02.360Z,7.74
2019-03-16T02:43:07.599Z,7.65
2019-03-16T02:48:12.879Z,7.65
2019-03-16T02:53:18.089Z,7.58
2019-03-16T02:58:23.334Z,7.56
2019-03-16T03:03:30.212Z,7.56
2019-03-16T03:08:35.465Z,7.49
2019-03-16T03:13:40.796Z,7.62
2019-03-16T03:18:49.325Z,7.52
2019-03-16T03:23:52.980Z,7.55
2019-03-16T03:28:58.533Z,7.59
2019-03-16T03:34:03.967Z,7.65
2019-03-16T03:39:11.673Z,7.62
2019-03-16T03:44:16.933Z,7.71
2019-03-16T03:49:22.588Z,7.75
2019-03-16T03:54:28.202Z,7.81
2019-03-16T03:59:33.676Z,7.71
2019-03-16T04:04:39.040Z,7.84
2019-03-16T04:09:44.252Z,7.84
2019-03-16T04:14:49.465Z,7.86
2019-03-16T04:19:54.845Z,7.95
2019-03-16T04:25:00.482Z,7.89
2019-03-16T04:30:05.805Z,7.91
2019-03-16T04:35:12.186Z,7.93
2019-03-16T04:40:17.472Z,8.02
2019-03-16T04:45:22.678Z,8.09
2019-03-16T04:50:28.137Z,8.08
2019-03-16T04:55:33.543Z,8.17
2019-03-16T05:00:38.788Z,8.06
2019-03-16T05:05:44.057Z,8.14
2019-03-16T05:10:50.902Z,8.19
2019-03-16T05:15:56.236Z,8.06
2019-03-16T05:21:01.513Z,8.13
2019-03-16T05:26:06.737Z,8.10
2019-03-16T05:31:11.999Z,8.12
2019-03-16T05:36:17.302Z,8.12
2019-03-16T05:47:32.652Z,8.10
2019-03-16T05:52:37.998Z,8.16
2019-03-16T05:57:43.359Z,8.12
2019-03-16T06:02:48.575Z,8.18
2019-03-16T06:07:53.931Z,8.19
2019-03-16T06:12:59.183Z,8.20
2019-03-16T06:18:04.405Z,8.33
2019-03-16T06:23:09.647Z,8.24
2019-03-16T06:28:14.942Z,8.30
2019-03-16T06:33:20.542Z,8.35
2019-03-16T06:38:25.877Z,8.40
2019-03-16T06:43:31.156Z,8.45
2019-03-16T06:48:36.592Z,8.53
2019-03-16T06:53:41.851Z,8.67
2019-03-16T06:58:47.738Z,8.89
2019-03-16T07:03:52.977Z,8.99
2019-03-16T07:08:58.182Z,9.17
2019-03-16T07:14:04.127Z,9.34
2019-03-16T07:19:09.411Z,9.47
2019-03-16T07:24:14.635Z,9.55
2019-03-16T07:29:19.823Z,9.71
2019-03-16T07:34:25.111Z,9.82
2019-03-16T07:39:30.344Z,9.95
2019-03-16T07:50:40.304Z,9.99
2019-03-16T07:55:45.579Z,9.96
2019-03-16T08:00:51.855Z,10.06
2019-03-16T08:05:57.215Z,10.07
2019-03-16T08:11:02.522Z,10.15
2019-03-16T08:16:07.912Z,10.19
2019-03-16T08:21:13.212Z,10.17
2019-03-16T08:26:18.473Z,10.38
2019-03-16T08:31:24.051Z,10.31
2019-03-16T08:36:29.596Z,10.35
2019-03-16T08:41:34.975Z,10.41
2019-03-16T08:46:40.607Z,10.48
2019-03-16T08:51:46.025Z,10.46
2019-03-16T08:56:51.578Z,10.45
2019-03-16T09:01:57.852Z,10.48
2019-03-16T09:07:03.308Z,10.34
2019-03-16T09:12:10.564Z,10.52
2019-03-16T09:17:17.674Z,10.52
2019-03-16T09:22:22.984Z,10.54
2019-03-16T09:27:31.520Z,10.48
2019-03-16T09:32:35.379Z,10.45
2019-03-16T09:37:40.770Z,10.47
2019-03-16T09:42:46.373Z,10.51
2019-03-16T09:47:51.862Z,10.51
2019-03-16T09:53:00.262Z,10.58
2019-03-16T09:58:05.743Z,10.67
2019-03-16T10:03:11.098Z,10.67
2019-03-16T10:08:19.020Z,10.60
2019-03-16T10:13:23.529Z,10.68
2019-03-16T10:18:29.183Z,10.72
2019-03-16T10:23:34.582Z,10.73
2019-03-16T10:28:43.805Z,10.67
2019-03-16T10:33:47.240Z,10.63
2019-03-16T10:38:52.802Z,10.62
2019-03-16T10:43:58.190Z,10.80
2019-03-16T10:49:03.643Z,10.71
2019-03-16T10:54:11.192Z,10.82
2019-03-16T10:59:16.735Z,10.62
2019-03-16T11:04:22.096Z,10.72
2019-03-16T11:09:28.372Z,10.73
2019-03-16T11:14:36.089Z,10.64
2019-03-16T11:19:41.305Z,10.63
2019-03-16T11:24:46.653Z,10.66
2019-03-16T11:29:51.963Z,10.67
2019-03-16T11:34:57.209Z,10.58
2019-03-16T11:40:02.511Z,10.57
2019-03-16T11:45:07.929Z,10.60
2019-03-16T11:50:13.957Z,10.70
2019-03-16T11:55:19.468Z,10.79
2019-03-16T12:00:24.912Z,10.73
2019-03-16T12:05:30.282Z,10.77
2019-03-16T12:10:36.948Z,10.90
2019-03-16T12:15:42.345Z,10.81
2019-03-16T12:20:47.573Z,10.70
2019-03-16T12:25:53.149Z,10.71
2019-03-16T12:30:58.583Z,10.53
2019-03-16T12:36:03.854Z,10.59
2019-03-16T12:41:09.180Z,10.64
2019-03-16T12:46:14.647Z,10.66
2019-03-16T12:51:21.816Z,10.76
2019-03-16T12:56:27.213Z,10.84
2019-03-16T13:01:32.592Z,10.80
2019-03-16T13:06:38.231Z,10.99
2019-03-16T13:11:43.567Z,10.90
2019-03-16T13:16:49.025Z,10.75
2019-03-16T13:21:54.277Z,10.71
2019-03-16T13:26:59.717Z,10.74
2019-03-16T13:32:04.985Z,10.70
2019-03-16T13:37:11.648Z,10.63
2019-03-16T13:42:18.108Z,10.59
2019-03-16T13:47:23.457Z,10.39
2019-03-16T13:52:30.361Z,10.16
2019-03-16T13:57:35.597Z,10.12
2019-03-16T14:02:41.250Z,10.00
2019-03-16T14:07:46.796Z,10.04
2019-03-16T14:12:52.242Z,10.12
2019-03-16T14:17:58.335Z,10.04
2019-03-16T14:23:05.696Z,9.93
2019-03-16T14:28:13.609Z,9.92
2019-03-16T14:33:20.694Z,9.93
2019-03-16T14:38:26.469Z,9.92
2019-03-16T14:43:33.599Z,10.02
2019-03-16T14:48:43.338Z,9.98
2019-03-16T14:53:49.371Z,10.11
2019-03-16T14:58:55.660Z,10.19
2019-03-16T15:04:01.037Z,10.19
2019-03-16T15:09:08.268Z,10.11
2019-03-16T15:14:21.617Z,10.13
2019-03-16T15:19:21.139Z,10.16
2019-03-16T15:24:27.152Z,10.17
2019-03-16T15:29:32.460Z,10.15
2019-03-16T15:34:37.802Z,9.98
2019-03-16T15:39:43.709Z,10.04
2019-03-16T15:44:49.648Z,10.15
2019-03-16T15:49:58.520Z,10.11
2019-03-16T15:55:03.156Z,10.12
2019-03-16T16:00:10.660Z,10.14
2019-03-16T16:05:16.115Z,10.07
2019-03-16T16:10:21.519Z,10.01
2019-03-16T16:15:27.072Z,10.05
2019-03-16T16:20:32.432Z,9.95
2019-03-16T16:25:38.525Z,9.97
2019-03-16T16:30:44.546Z,9.99
2019-03-16T16:35:50.029Z,9.98
2019-03-16T16:40:55.307Z,9.99
2019-03-16T16:46:00.543Z,9.89
2019-03-16T16:51:05.754Z,9.94
2019-03-16T16:56:11.020Z,9.92
2019-03-16T17:01:28.403Z,9.92
2019-03-16T17:06:23.329Z,9.80
2019-03-16T17:11:28.846Z,9.85
2019-03-16T17:16:34.566Z,9.80
2019-03-16T17:21:40.059Z,9.87
2019-03-16T17:26:45.318Z,9.95
2019-03-16T17:31:50.503Z,9.82
2019-03-16T17:36:55.712Z,9.82
2019-03-16T17:42:07.934Z,9.83
2019-03-16T17:47:13.333Z,9.77
2019-03-16T17:52:19.062Z,9.81
2019-03-16T17:57:24.464Z,9.87
2019-03-16T18:02:29.747Z,9.81
2019-03-16T18:07:35.428Z,9.78
2019-03-16T18:12:40.782Z,9.67
2019-03-16T18:17:46.073Z,9.70
2019-03-16T18:22:51.307Z,9.69
2019-03-16T18:27:56.698Z,9.69
2019-03-16T18:33:01.935Z,9.71
2019-03-16T18:38:07.226Z,9.74
2019-03-16T18:43:13.525Z,9.74
2019-03-16T18:48:18.802Z,9.61
2019-03-16T18:53:24.063Z,9.74
2019-03-16T18:58:37.237Z,9.66
2019-03-16T19:03:37.599Z,9.61
2019-03-16T19:08:42.930Z,9.50
2019-03-16T19:13:48.209Z,9.48
2019-03-16T19:18:53.544Z,9.54
2019-03-16T19:23:59.048Z,9.49
2019-03-16T19:29:05.308Z,9.47
2019-03-16T19:34:10.717Z,9.37
2019-03-16T19:39:17.057Z,9.45
2019-03-16T19:44:22.383Z,9.42
2019-03-16T19:49:27.996Z,9.40
2019-03-16T19:54:34.263Z,9.47
2019-03-16T19:59:39.454Z,9.49
2019-03-16T20:04:44.644Z,9.50
2019-03-16T20:09:49.911Z,9.48
2019-03-16T20:14:55.318Z,9.53
2019-03-16T20:20:02.824Z,9.50
2019-03-16T20:25:08.209Z,9.57
2019-03-16T20:30:14.542Z,9.59
2019-03-16T20:35:19.785Z,9.56
2019-03-16T20:40:25.094Z,9.51
2019-03-16T20:45:30.501Z,9.58
2019-03-16T20:50:36.110Z,9.56
2019-03-16T20:55:41.398Z,9.54
2019-03-16T21:00:46.587Z,9.53
2019-03-16T21:05:52.063Z,9.43
2019-03-16T21:10:59.466Z,9.38
2019-03-16T21:16:04.702Z,9.45
2019-03-16T21:21:10.037Z,9.56
2019-03-16T21:26:15.366Z,9.58
2019-03-16T21:31:20.572Z,9.64
2019-03-16T21:36:25.826Z,9.65
2019-03-16T21:41:32.083Z,9.60
2019-03-16T21:46:37.310Z,9.72
2019-03-16T21:51:43.515Z,9.68
2019-03-16T21:56:48.893Z,9.65
2019-03-16T22:01:54.395Z,9.70
2019-03-16T22:06:59.696Z,9.75
2019-03-16T22:12:05.631Z,9.76
2019-03-16T22:17:11.327Z,9.84
2019-03-16T22:22:16.604Z,9.69
2019-03-16T22:27:21.925Z,9.75
2019-03-16T22:32:27.132Z,9.63
2019-03-16T22:37:32.610Z,9.72
2019-03-16T22:42:38.009Z,9.72
2019-03-16T22:47:44.590Z,9.76
2019-03-16T22:52:49.902Z,9.75
2019-03-16T22:57:55.127Z,9.74
2019-03-16T23:03:00.369Z,9.80
2019-03-16T23:08:06.073Z,9.74
2019-03-16T23:13:11.618Z,9.83
2019-03-16T23:18:16.870Z,9.87
2019-03-16T23:23:22.324Z,9.85
2019-03-16T23:28:28.668Z,9.85
2019-03-16T23:33:34.386Z,9.90
2019-03-16T23:38:39.691Z,9.85
2019-03-16T23:43:44.975Z,9.83
2019-03-16T23:48:50.291Z,9.80
2019-03-16T23:53:55.744Z,9.83
2019-03-16T23:59:01.453Z,9.81
